This is the latest recevied weather packets stored in our database for station/object OM8AKX-4. If no packets are shown the sender has not sent any weather packets the latest 10 day(s).
| Time | Temp. | Humidity | Pressure | Rain* | Wind** | Luminosity | Snow |
|---|---|---|---|---|---|---|---|
| 1777704120 | 6.11° C | 67% | 883.4 hPa | - | - | - | - |
| 1777703220 | 6.11° C | 70% | 883.3 hPa | - | - | - | - |
| 1777702319 | 6.67° C | 68% | 883.2 hPa | - | - | - | - |
| 1777701419 | 7.22° C | 68% | 883.3 hPa | - | - | - | - |
| 1777700519 | 8.33° C | 61% | 883.3 hPa | - | - | - | - |
| 1777699619 | 10° C | 59% | 883.1 hPa | - | - | - | - |
| 1777698719 | 9.44° C | 59% | 883.1 hPa | - | - | - | - |
| 1777697819 | 9.44° C | 60% | 883 hPa | - | - | - | - |
| 1777696919 | 8.89° C | 63% | 882.9 hPa | - | - | - | - |
| 1777696019 | 8.33° C | 65% | 882.8 hPa | - | - | - | - |
| 1777695119 | 8.33° C | 63% | 882.6 hPa | - | - | - | - |
| 1777694219 | 11.67° C | 54% | 882.6 hPa | - | - | - | - |
| 1777693319 | 7.78° C | 71% | 882.6 hPa | - | - | - | - |
| 1777692419 | 5.56° C | 85% | 882.6 hPa | - | - | - | - |
| 1777691519 | 2.78° C | 100% | 882.6 hPa | - | - | - | - |
| 1777690619 | 3.33° C | 100% | 882.6 hPa | - | - | - | - |
| 1777689719 | 3.33° C | 100% | 882.6 hPa | - | - | - | - |
| 1777688818 | 3.33° C | 100% | 883 hPa | - | - | - | - |
| 1777673518 | 5° C | 87% | 883.6 hPa | - | - | - | - |
| 1777672618 | 5° C | 87% | 883.6 hPa | - | - | - | - |
| 1777670818 | 4.44° C | 91% | 883.5 hPa | - | - | - | - |
| 1777669018 | 4.44° C | 86% | 883.4 hPa | - | - | - | - |
| 1777667218 | 5° C | 80% | 883.5 hPa | - | - | - | - |
| 1777666318 | 5° C | 79% | 883.5 hPa | - | - | - | - |
| 1777665418 | 5° C | 80% | 883.5 hPa | - | - | - | - |
* Rain since midnight (hover to see other rain measurements)
** Current wind speed in m/s (hover to see current wind gust speed)